首页
METAR-TAF:

METAR-TAF

机场 :

阿尔图纳, 宾夕法尼亚州, 美国

纬度: 40-18-00N, 经度: 078-19-01W, 海拔: 458米

当前天气观测

该预报发布于12分钟前的07:53 UTC
风速11节,风向南转西南
温度 13°C
湿度 77%
气压 1005 hPa
能見度: 16.1公里
多云层高于3600英尺
多云层高于4600英尺
阴天层高于5500英尺

METAR: KAOO 100753Z AUTO 21011KT 10SM BKN036 BKN046 OVC055 13/09 A2969 RMK AO2 SLP056 T01280094

时间: 03:05 (08:05 UTC)

预报

该预报发布于2小时和5分钟前的06:00 UTC
预报有效从10日的 06点(UTC)到 11日的 06点(UTC)
风速10节,风向南转西南
能見度: 10公里
散云层高于1500英尺
阴天层高于3500英尺
附近有阵雨
短暂存在
从 10日的 06点(UTC)到 10日的 07点(UTC)
阴天层高于2500英尺
从 10日的 0700点(UTC)
风速9节,风向西南
能見度: 10公里
散云层高于1500英尺
阴天层高于2500英尺
附近有阵雨
从 10日的 1200点(UTC)
风速10节,风向西,有时为18节阵风
能見度: 10公里
散云层高于1500英尺
阴天层高于2500英尺
附近有阵雨
从 10日的 1900点(UTC)
风速14节,风向西转西北,有时为22节阵风
能見度: 10公里
多云层高于3500英尺
阴天层高于12000英尺

TAF: KAOO 100600Z 1006/1106 21010KT P6SM VCSH SCT015 OVC035 WS010/24035KT TEMPO 1006/1007 OVC025 FM100700 23009KT P6SM VCSH SCT015 OVC025 FM101200 26010G18KT P6SM VCSH SCT015 OVC025 FM101900 29014G22KT P6SM BKN035 OVC120

超过4000个机场的气象观测和天气预报(METAR&TAF报告)。

可查询的气象台以黄色和红色小点在地图上表示。

将鼠标移到小点上方,可查看气象台名称。

然后点击查看天气观测和预报。

如需切换地图:点击带黑十字的绿色按钮放大地图;点击带横线的绿色按钮缩小地图;或者点击绿色箭头查看邻近地区的地图。


METAR-TAF: